Time;durP1;ratioP1;P1;durP2;ratioP2;P2;SDS_P1;SDS_P2;PMS_P1;PMS_P2;Temp;Humidity;BMP_temperature;BMP_pressure;BME280_temperature;BME280_humidity;BME280_pressure;Samples;Min_cycle;Max_cycle;Signal;HPM_P1;HPM_P2
2021/10/12 00:01:27;;;;;;;21.50;12.10;;;;;;;9.63;44.81;100245.66;5052174;28;20556;-71
2021/10/12 00:03:53;;;;;;;27.30;12.50;;;;;;;9.64;44.53;100246.53;5052238;28;20831;-69
2021/10/12 00:06:18;;;;;;;22.13;12.10;;;;;;;9.55;44.78;100225.78;5051102;28;20477;-70
2021/10/12 00:08:44;;;;;;;22.52;12.02;;;;;;;9.58;44.77;100237.09;5051969;28;20182;-69
2021/10/12 00:11:09;;;;;;;19.48;11.57;;;;;;;9.61;44.73;100230.69;5051743;28;20401;-69
2021/10/12 00:13:35;;;;;;;22.13;11.85;;;;;;;9.61;44.82;100238.72;5052282;28;20460;-69
2021/10/12 00:16:01;;;;;;;21.13;12.05;;;;;;;9.58;44.75;100242.47;5052042;28;20037;-65
2021/10/12 00:18:26;;;;;;;20.88;12.40;;;;;;;9.59;45.01;100233.47;5050899;28;20025;-70
2021/10/12 00:20:52;;;;;;;23.35;13.02;;;;;;;9.58;44.92;100231.75;5051955;28;20035;-68
2021/10/12 00:23:18;;;;;;;25.00;14.75;;;;;;;9.59;45.16;100230.78;5051926;28;20029;-70
2021/10/12 00:25:43;;;;;;;27.08;13.50;;;;;;;9.41;45.11;100197.38;5049839;28;20069;-69
2021/10/12 00:28:09;;;;;;;23.02;13.48;;;;;;;9.52;45.35;100221.50;5051380;28;20396;-69
2021/10/12 00:30:34;;;;;;;23.08;13.25;;;;;;;9.55;44.98;100228.47;5051808;28;20025;-68
2021/10/12 00:33:00;;;;;;;26.30;14.30;;;;;;;9.56;44.84;100225.66;5052370;28;20029;-69
2021/10/12 00:35:25;;;;;;;24.23;14.05;;;;;;;9.56;44.89;100224.84;5051191;28;20036;-69
2021/10/12 00:37:51;;;;;;;23.80;13.60;;;;;;;9.53;45.14;100225.88;5051243;28;20032;-68
2021/10/12 00:40:16;;;;;;;24.83;13.80;;;;;;;9.51;45.26;100219.81;5051755;28;20032;-67
2021/10/12 00:42:42;;;;;;;28.80;14.38;;;;;;;9.39;45.21;100200.13;5033075;28;20025;-69
2021/10/12 00:45:10;;;;;;;25.75;13.13;;;;;;;9.49;45.27;100219.06;5030898;28;20077;-70
2021/10/12 00:47:36;;;;;;;24.83;13.70;;;;;;;9.38;45.39;100209.09;5030997;28;20037;-68
2021/10/12 00:50:06;;;;;;;24.10;13.35;;;;;;;9.42;45.87;100215.94;5030295;28;20021;-63
2021/10/12 00:52:32;;;;;;;23.08;14.05;;;;;;;9.30;45.48;100198.94;5031953;28;20370;-68
2021/10/12 00:54:57;;;;;;;24.20;13.95;;;;;;;9.39;45.62;100221.50;5031173;28;20041;-68
2021/10/12 00:57:23;;;;;;;31.92;15.00;;;;;;;9.37;45.80;100219.88;5031157;28;20034;-67
2021/10/12 00:59:49;;;;;;;29.40;14.30;;;;;;;9.37;45.81;100209.19;5030072;28;20446;-69
2021/10/12 01:02:15;;;;;;;27.83;14.52;;;;;;;9.38;45.72;100216.25;5013086;28;20035;-68
2021/10/12 01:04:40;;;;;;;25.48;14.60;;;;;;;9.33;45.62;100206.75;5030901;28;20030;-69
2021/10/12 01:07:05;;;;;;;27.02;14.23;;;;;;;9.20;46.01;100187.19;5030969;28;20385;-68
2021/10/12 01:09:31;;;;;;;30.13;15.68;;;;;;;9.34;45.78;100211.13;5031124;28;20034;-70
2021/10/12 01:11:58;;;;;;;24.65;13.82;;;;;;;9.38;45.93;100205.56;5031198;28;20054;-70
2021/10/12 01:14:25;;;;;;;33.30;15.98;;;;;;;9.32;45.71;100210.38;5031002;28;20342;-69
2021/10/12 01:16:50;;;;;;;28.27;15.40;;;;;;;9.27;45.80;100195.63;5030471;28;20120;-70
2021/10/12 01:19:16;;;;;;;26.08;15.27;;;;;;;9.28;46.07;100200.00;5031189;28;20108;-69
2021/10/12 01:21:45;;;;;;;28.27;15.02;;;;;;;9.27;46.00;100209.84;5030827;28;20460;-70
2021/10/12 01:24:11;;;;;;;27.38;14.20;;;;;;;9.22;46.51;100203.97;5029576;28;20124;-67
2021/10/12 01:26:39;;;;;;;25.42;15.70;;;;;;;9.29;46.36;100209.75;5030293;28;20373;-69
2021/10/12 01:29:06;;;;;;;28.48;15.70;;;;;;;9.27;46.00;100195.63;5030613;28;20029;-67
2021/10/12 01:31:32;;;;;;;31.45;15.77;;;;;;;9.19;46.49;100194.34;5030798;28;20545;-69
2021/10/12 01:33:58;;;;;;;32.13;15.48;;;;;;;9.26;45.95;100200.13;5030595;28;20116;-69
2021/10/12 01:36:24;;;;;;;31.80;15.98;;;;;;;9.24;46.50;100207.41;5030139;28;20113;-70
2021/10/12 01:38:49;;;;;;;35.78;15.15;;;;;;;9.23;46.49;100202.16;5030668;28;20029;-69
2021/10/12 01:41:15;;;;;;;26.73;14.95;;;;;;;9.19;46.45;100202.34;5030197;28;20030;-70
2021/10/12 01:43:41;;;;;;;25.63;14.85;;;;;;;9.13;46.45;100188.56;5030635;28;20493;-69
2021/10/12 01:46:08;;;;;;;34.38;14.88;;;;;;;8.98;46.40;100164.63;5030434;28;20098;-68
2021/10/12 01:48:35;;;;;;;28.98;15.15;;;;;;;9.21;46.53;100194.25;5030721;28;20033;-68
2021/10/12 01:51:01;;;;;;;27.85;15.88;;;;;;;9.22;46.62;100198.63;5030657;28;20029;-70
2021/10/12 01:53:27;;;;;;;26.33;15.05;;;;;;;9.19;46.46;100180.16;5030986;28;20037;-69
2021/10/12 01:55:52;;;;;;;28.05;16.38;;;;;;;9.17;46.69;100174.06;5030425;28;20026;-69
2021/10/12 01:58:18;;;;;;;31.30;16.40;;;;;;;9.22;47.03;100176.38;5030461;28;20057;-70
2021/10/12 02:00:44;;;;;;;30.38;15.85;;;;;;;9.19;46.76;100177.47;5031048;28;20507;-69
2021/10/12 02:03:10;;;;;;;27.55;15.70;;;;;;;9.12;47.26;100168.16;5030302;28;20485;-67
2021/10/12 02:05:35;;;;;;;26.27;14.95;;;;;;;9.16;47.04;100172.31;5030119;28;20091;-68
2021/10/12 02:08:01;;;;;;;27.02;15.50;;;;;;;9.17;47.13;100168.72;5030699;28;20105;-70
2021/10/12 02:10:26;;;;;;;29.73;15.25;;;;;;;9.13;46.95;100168.06;5030548;28;20165;-68
2021/10/12 02:12:52;;;;;;;31.35;16.52;;;;;;;9.18;46.99;100175.78;5032699;28;20429;-68
2021/10/12 02:15:17;;;;;;;28.73;16.13;;;;;;;8.93;46.83;100126.72;5033977;28;20114;-70
2021/10/12 02:17:43;;;;;;;28.27;16.20;;;;;;;9.13;47.13;100161.84;5032893;28;20028;-69
2021/10/12 02:20:09;;;;;;;28.83;16.25;;;;;;;9.18;46.86;100170.44;5033606;28;20029;-69
2021/10/12 02:22:36;;;;;;;33.70;17.83;;;;;;;9.08;47.19;100158.66;5033832;28;20048;-70
2021/10/12 02:25:02;;;;;;;28.73;16.40;;;;;;;9.07;47.61;100157.81;5034127;28;20127;-70
2021/10/12 02:27:28;;;;;;;33.75;15.95;;;;;;;9.05;47.55;100160.56;5034366;28;20041;-70
2021/10/12 02:29:53;;;;;;;28.70;15.30;;;;;;;9.03;47.96;100157.16;5033710;28;20039;-70
2021/10/12 02:32:19;;;;;;;33.70;16.73;;;;;;;9.07;47.88;100156.94;5033366;28;20107;-71
2021/10/12 02:34:45;;;;;;;33.05;16.05;;;;;;;9.00;47.80;100154.69;5033535;28;20030;-71
2021/10/12 02:37:11;;;;;;;36.22;16.02;;;;;;;9.07;47.55;100159.63;5034232;28;20120;-71
2021/10/12 02:39:36;;;;;;;27.70;15.90;;;;;;;8.82;47.74;100121.25;5033811;28;20103;-70
2021/10/12 02:42:02;;;;;;;29.02;15.43;;;;;;;9.01;47.80;100159.09;5032978;28;20049;-70
2021/10/12 02:44:28;;;;;;;29.27;15.30;;;;;;;8.99;48.11;100161.00;5033887;28;20283;-71
2021/10/12 02:46:53;;;;;;;34.45;16.63;;;;;;;8.92;48.20;100148.19;5032834;28;20033;-71
2021/10/12 02:49:19;;;;;;;33.15;15.70;;;;;;;8.92;48.20;100143.66;5033409;28;20025;-69
2021/10/12 02:51:44;;;;;;;30.98;15.52;;;;;;;8.92;48.17;100159.69;5033361;28;20120;-69
2021/10/12 02:54:11;;;;;;;28.00;15.02;;;;;;;8.89;48.46;100159.91;5033701;28;20029;-69
2021/10/12 02:56:36;;;;;;;30.88;16.10;;;;;;;8.84;48.43;100156.69;5033847;28;20029;-70
2021/10/12 02:59:02;;;;;;;30.23;15.27;;;;;;;8.75;48.88;100147.50;5033340;28;20112;-70
2021/10/12 03:01:28;;;;;;;25.50;14.95;;;;;;;8.72;48.88;100148.59;5033052;28;20469;-70
2021/10/12 03:03:53;;;;;;;27.48;15.38;;;;;;;8.69;48.71;100143.47;5033568;28;20108;-67
2021/10/12 03:06:19;;;;;;;25.38;15.50;;;;;;;8.66;49.11;100148.97;5033246;28;20034;-70
2021/10/12 03:08:44;;;;;;;26.60;14.98;;;;;;;8.57;49.16;100131.78;5033546;28;20025;-69
2021/10/12 03:11:10;;;;;;;32.63;16.13;;;;;;;8.58;48.56;100133.50;5032809;28;20041;-64
2021/10/12 03:13:35;;;;;;;27.40;15.80;;;;;;;8.59;49.13;100145.03;5033549;28;20064;-69
2021/10/12 03:16:01;;;;;;;32.97;16.58;;;;;;;8.54;49.64;100145.31;5033571;28;20054;-69
2021/10/12 03:18:30;;;;;;;27.80;15.93;;;;;;;8.32;49.58;100108.53;5032708;28;20112;-70
2021/10/12 03:20:56;;;;;;;27.20;15.18;;;;;;;8.45;49.51;100133.44;5032737;28;20037;-72
2021/10/12 03:23:21;;;;;;;28.23;15.98;;;;;;;8.43;49.64;100142.50;5031772;28;20036;-69
2021/10/12 03:25:47;;;;;;;30.38;16.58;;;;;;;8.40;49.78;100132.88;5032339;28;20448;-69
2021/10/12 03:28:12;;;;;;;30.30;15.88;;;;;;;8.24;49.97;100113.53;5031161;28;20036;-68
2021/10/12 03:30:37;;;;;;;32.92;15.80;;;;;;;8.26;50.07;100120.44;5032676;28;20033;-67
2021/10/12 03:33:04;;;;;;;30.77;16.70;;;;;;;8.29;50.30;100138.06;5031321;28;20123;-68
2021/10/12 03:35:33;;;;;;;29.58;16.20;;;;;;;8.25;50.57;100125.91;5030888;28;20373;-68
2021/10/12 03:37:58;;;;;;;25.63;15.50;;;;;;;8.19;50.79;100133.34;5032421;28;20129;-68
2021/10/12 03:40:24;;;;;;;34.33;16.20;;;;;;;8.17;50.79;100127.25;5032630;28;20109;-69
2021/10/12 03:42:50;;;;;;;32.05;16.92;;;;;;;8.11;50.93;100126.81;5032764;28;20083;-69
2021/10/12 03:45:15;;;;;;;31.17;16.98;;;;;;;8.12;50.82;100137.38;5030804;28;20029;-70
2021/10/12 03:47:41;;;;;;;30.95;16.20;;;;;;;8.11;51.18;100132.16;5031901;28;20025;-70
2021/10/12 03:50:07;;;;;;;29.23;16.45;;;;;;;8.08;51.25;100132.31;5032670;28;20112;-69
2021/10/12 03:52:32;;;;;;;32.40;16.63;;;;;;;8.04;51.27;100121.03;5031869;28;20148;-71
2021/10/12 03:54:58;;;;;;;30.25;16.45;;;;;;;8.02;51.04;100118.44;5032401;28;20072;-69
2021/10/12 03:57:23;;;;;;;30.65;16.55;;;;;;;8.04;51.17;100129.03;5032143;28;20037;-70
2021/10/12 03:59:48;;;;;;;33.00;17.25;;;;;;;8.03;51.18;100128.16;5032086;28;20542;-69
2021/10/12 04:02:14;;;;;;;32.33;17.27;;;;;;;8.00;51.24;100120.34;5032061;28;20458;-67
2021/10/12 04:04:40;;;;;;;30.98;17.00;;;;;;;7.94;51.73;100125.22;5032635;28;20025;-69
2021/10/12 04:07:05;;;;;;;31.67;17.05;;;;;;;7.93;51.82;100131.50;5032013;28;20466;-68
2021/10/12 04:09:31;;;;;;;30.55;17.75;;;;;;;7.92;51.69;100137.81;5032231;28;20037;-68
2021/10/12 04:11:57;;;;;;;35.58;18.13;;;;;;;7.88;51.63;100132.66;5032258;28;20041;-69
2021/10/12 04:14:22;;;;;;;33.10;17.40;;;;;;;7.86;51.74;100136.41;5032335;28;20084;-69
2021/10/12 04:16:48;;;;;;;29.70;17.77;;;;;;;7.61;52.20;100098.84;5031654;28;20124;-68
2021/10/12 04:19:13;;;;;;;34.03;17.55;;;;;;;7.85;52.12;100129.38;5030575;28;20033;-67
2021/10/12 04:21:39;;;;;;;30.48;17.40;;;;;;;7.71;51.84;100108.91;5032310;28;20083;-69
2021/10/12 04:24:05;;;;;;;30.52;17.67;;;;;;;7.90;52.08;100133.44;5031555;28;20116;-68
2021/10/12 04:26:31;;;;;;;33.45;17.98;;;;;;;7.91;51.82;100134.28;5031375;28;20033;-67
2021/10/12 04:28:56;;;;;;;34.30;17.63;;;;;;;8.04;51.64;100137.03;5029903;28;20038;-69
2021/10/12 04:31:22;;;;;;;36.78;18.38;;;;;;;7.95;51.25;100100.28;5031745;28;20370;-68
2021/10/12 04:33:48;;;;;;;34.45;18.92;;;;;;;8.23;51.02;100138.50;5030618;28;20531;-67
2021/10/12 04:36:13;;;;;;;34.47;17.58;;;;;;;8.27;51.29;100132.00;5031679;28;20033;-70
2021/10/12 04:38:39;;;;;;;31.17;18.15;;;;;;;8.36;50.73;100126.03;5031555;28;20037;-68
2021/10/12 04:41:04;;;;;;;30.98;17.00;;;;;;;8.47;50.48;100126.19;5031736;28;20068;-68
2021/10/12 04:43:30;;;;;;;38.05;17.08;;;;;;;8.59;50.24;100132.53;5031760;28;20160;-69
2021/10/12 04:45:55;;;;;;;35.63;17.88;;;;;;;8.69;50.15;100127.44;5031019;28;20029;-68
2021/10/12 04:48:21;;;;;;;33.72;17.75;;;;;;;8.85;49.13;100121.03;5031219;28;20461;-70
2021/10/12 04:50:47;;;;;;;32.95;18.25;;;;;;;8.97;48.84;100122.00;5013707;28;20116;-68
2021/10/12 04:53:12;;;;;;;31.05;17.65;;;;;;;9.12;48.59;100128.97;5029907;28;20033;-70
2021/10/12 04:55:40;;;;;;;34.17;18.08;;;;;;;9.25;48.32;100118.25;5029550;28;20033;-69
2021/10/12 04:58:07;;;;;;;34.63;18.35;;;;;;;9.53;47.67;100128.81;5030954;28;20029;-68
2021/10/12 05:00:34;;;;;;;31.17;17.70;;;;;;;9.74;47.09;100121.06;5031379;28;20022;-69
2021/10/12 05:02:59;;;;;;;30.27;17.05;;;;;;;9.91;46.41;100112.69;5031531;28;20029;-69
2021/10/12 05:05:24;;;;;;;28.67;17.38;;;;;;;10.16;45.97;100110.84;5031022;28;20366;-69
2021/10/12 05:07:50;;;;;;;33.40;17.38;;;;;;;10.56;45.11;100098.13;5031372;28;20036;-70
2021/10/12 05:10:15;;;;;;;31.05;16.98;;;;;;;11.55;42.65;100109.19;5031330;28;20108;-69
2021/10/12 05:12:41;;;;;;;32.35;16.50;;;;;;;12.86;39.87;100111.97;5031054;28;20037;-68
2021/10/12 05:15:07;;;;;;;35.15;16.55;;;;;;;13.54;37.84;100116.00;5029486;28;20221;-70
2021/10/12 05:17:37;;;;;;;28.83;16.17;;;;;;;13.81;37.10;100083.09;5030333;28;20037;-70
2021/10/12 05:20:04;;;;;;;30.95;17.05;;;;;;;14.00;36.98;100109.19;5030866;28;20029;-69
2021/10/12 05:22:30;;;;;;;26.83;14.88;;;;;;;13.78;37.25;100119.19;5030240;28;20413;-68
2021/10/12 05:24:55;;;;;;;33.00;16.50;;;;;;;13.57;37.69;100103.13;5030831;28;20025;-69
2021/10/12 05:27:21;;;;;;;31.10;16.40;;;;;;;13.46;37.94;100108.59;5029288;28;20037;-67
2021/10/12 05:29:47;;;;;;;31.45;16.85;;;;;;;13.30;38.17;100109.06;5030971;28;20026;-67
2021/10/12 05:32:12;;;;;;;33.15;17.27;;;;;;;13.16;38.70;100107.59;5030152;28;20484;-68
2021/10/12 05:34:38;;;;;;;26.15;16.20;;;;;;;13.00;38.85;100106.22;5029214;28;20064;-67
2021/10/12 05:37:03;;;;;;;32.55;16.45;;;;;;;12.80;39.02;100109.81;5012805;28;20056;-67
2021/10/12 05:39:29;;;;;;;30.92;16.52;;;;;;;12.85;39.33;100113.78;5028942;28;20072;-69
2021/10/12 05:41:58;;;;;;;26.75;16.80;;;;;;;12.96;39.31;100112.03;5028935;28;20032;-67
2021/10/12 05:44:23;;;;;;;27.45;17.02;;;;;;;12.89;38.93;100104.47;5030895;28;20030;-65
2021/10/12 05:46:49;;;;;;;29.90;15.75;;;;;;;13.07;38.73;100120.00;5029560;28;20040;-63
2021/10/12 05:49:15;;;;;;;30.83;16.80;;;;;;;13.27;38.39;100107.53;5034962;28;20401;-69
2021/10/12 05:51:46;;;;;;;29.00;16.55;;;;;;;13.48;38.01;100106.63;5044302;28;20037;-68
2021/10/12 05:54:16;;;;;;;25.70;17.00;;;;;;;13.66;37.55;100103.28;5046469;28;20063;-64
2021/10/12 05:56:46;;;;;;;27.67;16.52;;;;;;;13.80;37.26;100100.22;5049738;28;20078;-69
2021/10/12 05:59:11;;;;;;;32.42;17.05;;;;;;;14.02;36.45;100095.59;5036240;28;20023;-68
2021/10/12 06:01:40;;;;;;;30.65;17.17;;;;;;;13.93;36.38;100062.28;5040196;28;20075;-62
2021/10/12 06:04:06;;;;;;;30.55;16.52;;;;;;;14.31;36.01;100083.97;5039646;28;20028;-68
2021/10/12 06:06:32;;;;;;;30.23;16.30;;;;;;;14.54;35.63;100097.16;5041218;28;20079;-67
2021/10/12 06:08:57;;;;;;;27.30;17.35;;;;;;;14.91;34.93;100099.97;5024857;28;20920;-67
2021/10/12 06:11:23;;;;;;;28.27;17.08;;;;;;;15.21;33.99;100079.16;5037171;28;20045;-68
2021/10/12 06:13:51;;;;;;;28.02;16.52;;;;;;;15.59;33.51;100067.50;5036064;28;20083;-67
2021/10/12 06:16:16;;;;;;;30.73;17.02;;;;;;;17.11;31.19;100094.69;5042740;28;20029;-66
2021/10/12 06:18:42;;;;;;;27.02;16.50;;;;;;;18.36;28.90;100091.44;5043243;28;20087;-68
2021/10/12 06:21:09;;;;;;;31.27;17.15;;;;;;;19.36;27.37;100076.72;5036233;28;20444;-67
2021/10/12 06:23:34;;;;;;;29.00;16.65;;;;;;;21.03;24.86;100082.75;5037935;28;20108;-69
2021/10/12 06:26:00;;;;;;;32.33;17.02;;;;;;;22.86;22.23;100091.97;5046670;28;20078;-66
2021/10/12 06:28:27;;;;;;;31.00;17.65;;;;;;;24.04;21.03;100081.25;5053029;28;20028;-69
2021/10/12 06:30:52;;;;;;;32.97;17.65;;;;;;;25.10;19.32;100062.38;5053154;28;20044;-68
2021/10/12 06:33:18;;;;;;;24.95;17.90;;;;;;;26.31;18.36;100092.03;5054063;28;20037;-67
2021/10/12 06:35:43;;;;;;;25.13;17.35;;;;;;;27.48;16.95;100092.47;5053377;28;20029;-67
2021/10/12 06:38:09;;;;;;;28.25;17.95;;;;;;;28.44;16.01;100068.97;5052601;28;20083;-67
2021/10/12 06:40:35;;;;;;;29.27;18.00;;;;;;;29.57;15.24;100088.41;5052083;28;20036;-68
2021/10/12 06:43:01;;;;;;;28.15;18.00;;;;;;;30.59;13.87;100090.56;5053262;28;20393;-67
2021/10/12 06:45:27;;;;;;;25.45;18.20;;;;;;;31.22;13.17;100080.25;5035544;28;20032;-67
2021/10/12 06:47:53;;;;;;;27.52;18.65;;;;;;;32.18;12.46;100074.47;5053795;28;20028;-68
2021/10/12 06:50:21;;;;;;;33.25;18.38;;;;;;;32.66;12.09;100087.66;5052270;28;20025;-69
2021/10/12 06:52:47;;;;;;;25.88;17.63;;;;;;;33.02;11.61;100071.28;5053411;28;20535;-68
2021/10/12 06:55:14;;;;;;;26.58;17.63;;;;;;;33.77;11.18;100075.00;5053362;28;20126;-68
2021/10/12 06:57:41;;;;;;;25.98;17.42;;;;;;;34.53;10.31;100080.16;5035683;28;20150;-68
2021/10/12 07:00:09;;;;;;;27.20;18.30;;;;;;;35.05;10.32;100092.03;5051000;28;20097;-71
2021/10/12 07:02:36;;;;;;;29.33;17.75;;;;;;;35.16;9.70;100076.16;5052700;28;20029;-69
2021/10/12 07:05:01;;;;;;;31.80;17.70;;;;;;;35.51;9.36;100071.63;5052166;28;20028;-68
2021/10/12 07:07:28;;;;;;;26.73;18.00;;;;;;;35.46;9.67;100085.53;5053320;28;20465;-69
2021/10/12 07:09:53;;;;;;;29.95;18.85;;;;;;;35.13;9.83;100074.78;5036633;28;20072;-66
2021/10/12 07:12:19;;;;;;;25.15;17.42;;;;;;;34.83;9.97;100076.47;5031845;28;20128;-70
2021/10/12 07:14:44;;;;;;;28.30;17.77;;;;;;;34.67;9.87;100056.22;5032903;28;20072;-68
2021/10/12 07:17:10;;;;;;;27.15;17.80;;;;;;;34.68;9.76;100071.78;5030874;28;20036;-71
2021/10/12 07:19:35;;;;;;;27.38;17.80;;;;;;;34.65;9.93;100075.13;5032034;28;20029;-69
2021/10/12 07:22:01;;;;;;;25.05;16.73;;;;;;;34.58;9.76;100064.28;5030411;28;20025;-71
2021/10/12 07:24:26;;;;;;;31.33;16.90;;;;;;;34.37;10.01;100070.94;5030235;28;20132;-69
2021/10/12 07:26:53;;;;;;;30.33;18.30;;;;;;;34.12;10.14;100073.41;5031016;28;20043;-69
2021/10/12 07:29:19;;;;;;;27.20;17.55;;;;;;;33.84;10.07;100074.72;5030800;28;20060;-69
2021/10/12 07:31:45;;;;;;;30.98;17.85;;;;;;;33.13;10.47;100069.41;5031326;28;20453;-69
2021/10/12 07:34:11;;;;;;;33.15;17.15;;;;;;;31.73;11.67;100079.25;5029896;28;20029;-63
2021/10/12 07:36:37;;;;;;;27.00;17.42;;;;;;;29.60;12.76;100068.59;5030495;28;20112;-63
2021/10/12 07:39:04;;;;;;;29.65;17.95;;;;;;;27.40;15.25;100078.19;5014335;28;20112;-61
2021/10/12 07:41:31;;;;;;;26.92;18.58;;;;;;;25.11;17.46;100055.00;5030405;28;20549;-62
2021/10/12 07:43:57;;;;;;;27.25;19.48;;;;;;;23.44;19.10;100079.97;5030236;28;20152;-64
2021/10/12 07:46:23;;;;;;;31.52;18.17;;;;;;;21.98;20.95;100073.09;5031224;28;20037;-62
2021/10/12 07:48:48;;;;;;;35.90;19.00;;;;;;;20.79;22.65;100079.25;5031448;28;20491;-61
2021/10/12 07:51:14;;;;;;;28.13;18.65;;;;;;;19.61;23.96;100057.63;5030247;28;20439;-63
2021/10/12 07:53:40;;;;;;;27.65;18.75;;;;;;;18.99;25.22;100072.75;5028873;28;20080;-63
2021/10/12 07:56:11;;;;;;;35.53;19.98;;;;;;;18.45;26.07;100068.72;5051623;28;20037;-61
2021/10/12 07:58:37;;;;;;;34.13;20.50;;;;;;;18.08;26.26;100061.91;5050480;28;20039;-63
2021/10/12 08:01:04;;;;;;;29.63;18.98;;;;;;;17.73;26.90;100082.81;5050393;28;20033;-65
2021/10/12 08:03:30;;;;;;;33.60;19.90;;;;;;;17.05;27.87;100024.00;5047303;28;20040;-63
2021/10/12 08:05:56;;;;;;;29.23;19.17;;;;;;;16.80;28.38;100041.94;5042526;28;20032;-63
2021/10/12 08:08:21;;;;;;;37.58;18.42;;;;;;;16.66;28.98;100051.47;5054249;28;20028;-62
2021/10/12 08:10:47;;;;;;;30.35;19.48;;;;;;;16.47;29.23;100053.34;5044580;28;20443;-64
2021/10/12 08:13:18;;;;;;;29.02;18.45;;;;;;;16.48;29.56;100057.75;5041983;28;20047;-62
2021/10/12 08:15:50;;;;;;;35.13;18.60;;;;;;;16.50;29.63;100050.34;5042738;28;20423;-63
2021/10/12 08:18:16;;;;;;;28.10;16.77;;;;;;;16.56;29.01;100048.00;5054155;28;20032;-64
2021/10/12 08:20:42;;;;;;;31.70;16.23;;;;;;;16.59;28.46;100045.84;5040013;28;20545;-64
2021/10/12 08:23:07;;;;;;;28.02;14.93;;;;;;;16.58;28.33;100041.44;5041974;28;20445;-66
2021/10/12 08:25:33;;;;;;;30.85;15.90;;;;;;;16.71;28.66;100045.56;5038774;28;20123;-65
2021/10/12 08:27:59;;;;;;;21.73;14.60;;;;;;;16.61;28.55;100021.34;5056091;28;20044;-66
2021/10/12 08:30:24;;;;;;;20.98;14.65;;;;;;;16.72;27.94;100028.34;5028078;28;20029;-68
2021/10/12 08:32:50;;;;;;;23.85;13.10;;;;;;;16.70;27.77;100044.72;5041494;28;20033;-64
2021/10/12 08:35:15;;;;;;;21.10;13.07;;;;;;;16.46;27.86;100003.00;5040156;28;20096;-66
2021/10/12 08:37:42;;;;;;;24.02;13.05;;;;;;;16.66;27.85;100035.25;5041207;28;20442;-65
2021/10/12 08:40:13;;;;;;;21.83;12.50;;;;;;;16.59;27.64;100028.75;5022962;28;20026;-67
2021/10/12 08:42:45;;;;;;;22.75;12.38;;;;;;;16.55;27.94;100033.66;5058993;28;20107;-63
2021/10/12 08:45:11;;;;;;;18.20;12.13;;;;;;;16.47;28.11;100034.44;5038951;28;20083;-65
2021/10/12 08:47:37;;;;;;;22.95;12.57;;;;;;;16.31;28.41;100018.09;5059627;28;20452;-66
2021/10/12 08:50:06;;;;;;;22.50;12.52;;;;;;;16.28;28.40;100027.38;5058859;28;20075;-65
2021/10/12 08:52:31;;;;;;;21.13;11.70;;;;;;;16.07;28.45;99979.06;5042409;28;20040;-63
2021/10/12 08:54:57;;;;;;;23.52;12.55;;;;;;;16.36;28.74;100010.34;5054132;28;20036;-63
2021/10/12 08:57:28;;;;;;;18.52;12.57;;;;;;;16.41;28.63;100005.34;5046954;28;20107;-64
2021/10/12 08:59:59;;;;;;;20.05;13.52;;;;;;;16.37;28.49;99987.72;5057397;28;20025;-67
2021/10/12 09:02:26;;;;;;;23.10;13.25;;;;;;;16.54;28.38;100009.47;5042004;28;20484;-66
2021/10/12 09:04:52;;;;;;;19.88;12.82;;;;;;;16.58;28.67;99997.34;5066762;28;20036;-65
2021/10/12 09:07:19;;;;;;;24.45;13.13;;;;;;;16.42;28.69;99974.63;5053937;28;20043;-64
2021/10/12 09:09:45;;;;;;;25.08;13.43;;;;;;;16.38;29.10;99997.53;5061128;28;20062;-67
2021/10/12 09:12:11;;;;;;;26.55;13.00;;;;;;;16.25;28.95;99991.72;5054650;28;20453;-67
2021/10/12 09:14:54;;;;;;;22.73;12.25;;;;;;;16.07;28.90;99961.03;5044332;28;20033;-64
2021/10/12 09:17:34;;;;;;;19.40;11.95;;;;;;;16.09;29.06;99968.13;5043177;28;20543;-67
2021/10/12 09:20:03;;;;;;;19.08;11.60;;;;;;;16.12;29.24;99979.44;5041575;28;20033;-65
2021/10/12 09:22:28;;;;;;;22.02;12.40;;;;;;;16.15;29.23;99987.22;5028917;28;20402;-65
2021/10/12 09:25:08;;;;;;;23.45;12.57;;;;;;;16.24;28.72;99981.91;5061761;28;20088;-64
2021/10/12 09:27:57;;;;;;;24.45;11.40;;;;;;;16.29;29.06;99984.97;5017127;28;20033;-63
2021/10/12 09:30:31;;;;;;;18.15;12.07;;;;;;;16.20;28.68;99987.63;5054709;28;20028;-64
2021/10/12 09:33:07;;;;;;;20.83;10.68;;;;;;;16.19;28.80;99985.94;5051788;28;20036;-64
2021/10/12 09:35:34;;;;;;;18.67;11.20;;;;;;;15.95;28.74;99951.44;5041849;28;20086;-64
2021/10/12 09:38:01;;;;;;;21.23;11.02;;;;;;;16.03;28.73;99977.69;5064477;28;20039;-63
2021/10/12 09:40:26;;;;;;;26.00;10.18;;;;;;;15.96;28.91;99984.72;5056300;28;20086;-63
2021/10/12 09:42:52;;;;;;;14.70;10.25;;;;;;;15.96;28.59;99963.94;5055341;28;20542;-63
2021/10/12 09:45:17;;;;;;;18.13;10.75;;;;;;;15.84;28.94;99957.06;5061756;28;20207;-63
2021/10/12 09:47:43;;;;;;;18.30;10.02;;;;;;;15.64;29.38;99949.97;5045749;28;20415;-61
2021/10/12 09:50:13;;;;;;;17.02;10.15;;;;;;;15.61;29.04;99971.03;5058723;28;20060;-64
2021/10/12 09:52:45;;;;;;;24.17;9.48;;;;;;;15.52;29.28;99953.91;5064582;28;20546;-62
2021/10/12 09:55:12;;;;;;;18.45;8.98;;;;;;;15.48;29.08;99961.44;5051906;28;20036;-62
2021/10/12 09:57:40;;;;;;;15.35;8.55;;;;;;;15.48;29.12;99955.22;5045337;28;20028;-64
2021/10/12 10:00:06;;;;;;;15.30;9.00;;;;;;;15.33;29.09;99962.97;5060077;28;20036;-62
2021/10/12 10:02:37;;;;;;;17.50;8.32;;;;;;;15.41;29.08;99940.63;5051956;28;20124;-62
2021/10/12 10:05:03;;;;;;;11.02;7.97;;;;;;;15.35;29.09;99939.41;5035799;28;20120;-59
2021/10/12 10:07:46;;;;;;;14.05;8.68;;;;;;;15.47;28.98;99945.44;5061925;28;20464;-59
2021/10/12 10:10:15;;;;;;;12.30;7.53;;;;;;;15.46;28.64;99941.03;5035139;28;20041;-60
2021/10/12 10:12:41;;;;;;;15.55;8.23;;;;;;;15.38;28.61;99940.94;5058582;28;20029;-61
2021/10/12 10:15:07;;;;;;;15.95;7.82;;;;;;;15.42;28.55;99934.22;5053187;28;20044;-60
2021/10/12 10:17:33;;;;;;;10.82;7.95;;;;;;;15.42;28.67;99934.22;5064414;28;20065;-61
2021/10/12 10:20:02;;;;;;;15.07;8.30;;;;;;;15.44;28.63;99933.06;5056080;28;20062;-62
2021/10/12 10:22:55;;;;;;;13.95;7.35;;;;;;;15.45;28.46;99901.56;5050567;28;20128;-61
2021/10/12 10:25:27;;;;;;;9.30;6.70;;;;;;;15.69;27.95;99929.78;5038140;28;20028;-59
2021/10/12 10:27:54;;;;;;;9.93;6.65;;;;;;;15.58;27.32;99929.00;5061312;28;20051;-60
2021/10/12 10:30:19;;;;;;;12.00;7.05;;;;;;;15.54;27.75;99924.91;5061753;28;20029;-61
2021/10/12 10:32:50;;;;;;;13.63;7.38;;;;;;;15.57;27.70;99930.00;5053387;28;20119;-59
2021/10/12 10:35:38;;;;;;;15.57;7.43;;;;;;;15.69;27.73;99929.78;5039639;28;20119;-59
2021/10/12 10:38:19;;;;;;;11.45;7.60;;;;;;;15.69;27.90;99922.50;5042143;28;20048;-60
2021/10/12 10:40:47;;;;;;;10.57;6.72;;;;;;;15.53;28.00;99923.22;5043968;28;20481;-58
2021/10/12 10:43:12;;;;;;;13.82;7.40;;;;;;;15.57;27.94;99921.91;5050091;28;20048;-59
2021/10/12 10:45:49;;;;;;;16.98;7.45;;;;;;;15.58;28.28;99917.38;5052300;28;20040;-57
2021/10/12 10:48:17;;;;;;;14.35;7.78;;;;;;;15.59;28.29;99925.28;5062367;28;20119;-60
2021/10/12 10:50:43;;;;;;;14.00;7.78;;;;;;;15.56;28.75;99909.41;5063322;28;20468;-56
2021/10/12 10:53:10;;;;;;;14.00;8.23;;;;;;;15.61;28.58;99935.94;5068584;28;20039;-58
2021/10/12 10:55:44;;;;;;;9.95;7.95;;;;;;;15.69;28.48;99917.13;5057827;28;20383;-60
2021/10/12 10:58:14;;;;;;;13.93;7.78;;;;;;;15.62;28.30;99918.75;5063340;28;20047;-60
2021/10/12 11:00:43;;;;;;;14.13;8.02;;;;;;;15.50;28.73;99915.44;5063516;28;20055;-60
2021/10/12 11:03:30;;;;;;;13.63;8.05;;;;;;;15.38;29.01;99911.25;5068670;28;20043;-57
2021/10/12 11:06:03;;;;;;;11.60;7.75;;;;;;;15.30;29.21;99912.88;5055881;28;20090;-63
2021/10/12 11:08:32;;;;;;;16.45;8.02;;;;;;;15.18;29.36;99905.97;5058515;28;20035;-59
2021/10/12 11:11:07;;;;;;;16.38;8.35;;;;;;;15.15;29.38;99914.38;5068646;28;20051;-60
2021/10/12 11:13:40;;;;;;;12.98;8.13;;;;;;;15.10;29.23;99911.28;5041555;28;20461;-60
2021/10/12 11:16:13;;;;;;;15.38;7.57;;;;;;;15.00;29.34;99909.53;5063476;28;20135;-57